createdAt,value
2018-07-23T00:01:00.139Z,73.10
2018-07-23T00:03:29.463Z,78.73
2018-07-23T00:05:58.520Z,79.40
2018-07-23T00:08:27.583Z,72.37
2018-07-23T00:10:56.637Z,72.80
2018-07-23T00:13:25.716Z,68.63
2018-07-23T00:15:54.768Z,73.43
2018-07-23T00:18:23.830Z,64.23
2018-07-23T00:20:52.887Z,60.63
2018-07-23T00:23:21.954Z,66.60
2018-07-23T00:25:51.008Z,70.13
2018-07-23T00:28:20.088Z,69.13
2018-07-23T00:30:49.143Z,57.83
2018-07-23T00:33:18.212Z,55.07
2018-07-23T00:35:47.255Z,60.47
2018-07-23T00:38:16.325Z,58.40
2018-07-23T00:40:45.384Z,52.70
2018-07-23T00:43:14.443Z,54.43
2018-07-23T00:45:43.512Z,49.63
2018-07-23T00:48:12.554Z,48.63
2018-07-23T00:50:41.622Z,41.63
2018-07-23T00:53:10.418Z,46.33
2018-07-23T00:55:39.358Z,54.67
2018-07-23T00:58:08.408Z,51.53
2018-07-23T01:00:37.227Z,50.60
2018-07-23T01:03:06.844Z,54.90
2018-07-23T01:05:38.004Z,52.23
2018-07-23T01:08:07.488Z,50.70
2018-07-23T01:10:36.592Z,48.90
2018-07-23T01:13:05.752Z,53.97
2018-07-23T01:15:34.824Z,56.30
2018-07-23T01:18:03.893Z,60.23
2018-07-23T01:20:32.984Z,62.93
2018-07-23T01:23:02.057Z,65.80
2018-07-23T01:25:31.144Z,67.17
2018-07-23T01:28:00.212Z,61.93
2018-07-23T01:30:29.300Z,69.63
2018-07-23T01:32:58.404Z,73.83
2018-07-23T01:35:27.499Z,77.17
2018-07-23T01:37:56.572Z,74.33
2018-07-23T01:40:25.667Z,71.47
2018-07-23T01:42:54.740Z,66.70
2018-07-23T01:45:23.827Z,69.03
2018-07-23T01:47:52.891Z,64.07
2018-07-23T01:50:21.732Z,69.87
2018-07-23T01:52:50.678Z,75.63
2018-07-23T01:55:19.507Z,72.07
2018-07-23T01:57:48.450Z,73.87
2018-07-23T02:00:17.569Z,72.27
2018-07-23T02:02:46.643Z,78.03
2018-07-23T02:05:15.727Z,71.27
2018-07-23T02:07:44.795Z,62.40
2018-07-23T02:10:13.922Z,57.17
2018-07-23T02:12:43.004Z,54.30
2018-07-23T02:15:12.084Z,57.73
2018-07-23T02:17:41.149Z,53.57
2018-07-23T02:20:10.224Z,54.83
2018-07-23T02:22:39.055Z,56.93
2018-07-23T02:25:08.002Z,51.20
2018-07-23T02:27:36.823Z,49.63
2018-07-23T02:30:05.523Z,67.30
2018-07-23T02:32:34.484Z,79.83
2018-07-23T02:35:03.298Z,80.23
2018-07-23T02:37:32.252Z,68.13
2018-07-23T02:40:01.316Z,67.73
2018-07-23T02:42:30.399Z,69.77
2018-07-23T02:44:59.460Z,78.83
2018-07-23T02:47:28.287Z,71.30
2018-07-23T02:49:57.228Z,68.53
2018-07-23T02:52:26.322Z,56.33
2018-07-23T02:54:55.175Z,60.87
2018-07-23T02:57:24.140Z,64.77
2018-07-23T02:59:53.205Z,64.57
2018-07-23T03:02:22.048Z,92.23
2018-07-23T03:04:51.008Z,82.40
2018-07-23T03:07:20.092Z,62.80
2018-07-23T03:09:49.160Z,65.90
2018-07-23T03:12:18.256Z,69.30
2018-07-23T03:14:47.350Z,76.17
2018-07-23T03:17:16.437Z,64.90
2018-07-23T03:19:45.495Z,70.37
2018-07-23T03:22:14.592Z,74.57
2018-07-23T03:24:43.659Z,72.73
2018-07-23T03:27:12.736Z,54.43
2018-07-23T03:29:41.904Z,50.13
2018-07-23T03:32:10.988Z,66.07
2018-07-23T03:34:40.044Z,72.10
2018-07-23T03:37:09.120Z,72.83
2018-07-23T03:39:38.192Z,69.20
2018-07-23T03:42:07.268Z,80.57
2018-07-23T03:44:36.340Z,70.40
2018-07-23T03:47:05.203Z,72.60
2018-07-23T03:49:34.139Z,67.90
2018-07-23T03:52:03.204Z,68.90
2018-07-23T03:54:32.281Z,66.40
2018-07-23T03:57:01.340Z,62.13
2018-07-23T03:59:30.425Z,61.33
2018-07-23T04:01:59.491Z,71.80
2018-07-23T04:04:28.584Z,65.03
2018-07-23T04:06:57.640Z,62.87
2018-07-23T04:09:26.720Z,69.80
2018-07-23T04:11:55.808Z,55.77
2018-07-23T04:14:25.263Z,60.33
2018-07-23T04:16:54.344Z,84.37
2018-07-23T04:19:23.435Z,70.87
2018-07-23T04:21:52.507Z,64.87
2018-07-23T04:24:21.599Z,69.00
2018-07-23T04:26:50.668Z,57.77
2018-07-23T04:29:19.535Z,58.13
2018-07-23T04:31:48.483Z,58.03
2018-07-23T04:34:17.579Z,58.83
2018-07-23T04:36:46.656Z,54.87
2018-07-23T04:39:15.752Z,50.50
2018-07-23T04:41:44.828Z,51.20
2018-07-23T04:44:13.995Z,53.07
2018-07-23T04:46:43.068Z,51.27
2018-07-23T04:49:12.186Z,46.87
2018-07-23T04:51:41.327Z,49.53
2018-07-23T04:54:10.175Z,47.07
2018-07-23T04:56:39.177Z,49.33
2018-07-23T04:59:08.245Z,50.43
2018-07-23T05:01:37.369Z,53.43
2018-07-23T05:04:06.460Z,54.87
2018-07-23T05:06:35.540Z,46.53
2018-07-23T05:09:08.444Z,49.63
2018-07-23T05:11:37.523Z,46.63
2018-07-23T05:14:07.231Z,43.93
2018-07-23T05:16:36.431Z,44.60
2018-07-23T05:19:05.563Z,46.30
2018-07-23T05:21:34.636Z,47.43
2018-07-23T05:24:03.736Z,44.90
2018-07-23T05:26:32.817Z,44.87
2018-07-23T05:29:01.916Z,40.23
2018-07-23T05:31:31.016Z,38.30
2018-07-23T05:34:00.088Z,39.77
2018-07-23T05:36:29.180Z,40.83
2018-07-23T05:38:58.252Z,38.27
2018-07-23T05:41:27.095Z,38.07
2018-07-23T05:43:56.037Z,38.57
2018-07-23T05:46:24.871Z,37.90
2018-07-23T05:48:53.815Z,36.63
2018-07-23T05:51:22.907Z,40.20
2018-07-23T05:53:51.976Z,40.00
2018-07-23T05:56:21.068Z,41.03
2018-07-23T05:58:50.188Z,38.00
2018-07-23T06:01:19.473Z,36.37
2018-07-23T06:03:48.674Z,36.83
2018-07-23T06:06:17.797Z,36.90
2018-07-23T06:08:46.868Z,32.97
2018-07-23T06:11:15.960Z,34.07
2018-07-23T06:13:44.795Z,31.50
2018-07-23T06:16:13.761Z,32.50
2018-07-23T06:18:42.823Z,31.90
2018-07-23T06:21:11.912Z,29.47
2018-07-23T06:23:41.011Z,31.90
2018-07-23T06:26:10.103Z,28.27
2018-07-23T06:28:39.159Z,28.93
2018-07-23T06:31:08.248Z,31.03
2018-07-23T06:33:37.311Z,30.30
2018-07-23T06:36:06.423Z,30.80
2018-07-23T06:38:35.483Z,30.33
2018-07-23T06:41:04.567Z,26.97
2018-07-23T06:43:33.624Z,24.30
2018-07-23T06:46:02.719Z,24.43
2018-07-23T06:48:31.788Z,25.20
2018-07-23T06:51:00.879Z,24.60
2018-07-23T06:53:29.948Z,26.30
2018-07-23T06:55:59.052Z,26.83
2018-07-23T06:58:28.116Z,24.77
2018-07-23T07:00:57.194Z,23.43
2018-07-23T07:03:26.309Z,23.67
2018-07-23T07:05:55.123Z,23.27
2018-07-23T07:08:23.835Z,22.37
2018-07-23T07:10:52.779Z,21.87
2018-07-23T07:13:21.694Z,23.10
2018-07-23T07:15:50.592Z,22.33
2018-07-23T07:18:19.767Z,19.63
2018-07-23T07:20:48.579Z,21.33
2018-07-23T07:23:17.544Z,21.27
2018-07-23T07:25:46.357Z,21.73
2018-07-23T07:28:15.062Z,18.83
2018-07-23T07:30:44.000Z,20.73
2018-07-23T07:33:13.079Z,18.90
2018-07-23T07:35:42.160Z,21.40
2018-07-23T07:38:11.286Z,18.57
2018-07-23T07:40:40.752Z,18.00
2018-07-23T07:43:09.884Z,15.87
2018-07-23T07:45:38.959Z,16.70
2018-07-23T07:48:08.039Z,15.90
2018-07-23T07:50:37.100Z,14.97
2018-07-23T07:53:06.194Z,14.03
2018-07-23T07:55:35.248Z,14.57
2018-07-23T07:58:04.372Z,13.27
2018-07-23T08:00:33.436Z,11.50
2018-07-23T08:03:02.528Z,11.37
2018-07-23T08:05:31.599Z,10.33
2018-07-23T08:08:00.684Z,10.27
2018-07-23T08:10:29.752Z,15.03
2018-07-23T08:12:58.871Z,12.43
2018-07-23T08:15:27.952Z,12.27
2018-07-23T08:17:56.865Z,10.90
2018-07-23T08:20:25.792Z,12.27
2018-07-23T08:22:54.888Z,11.13
2018-07-23T08:25:24.003Z,11.70
2018-07-23T08:27:53.182Z,11.50
2018-07-23T08:30:22.216Z,11.17
2018-07-23T08:32:51.283Z,11.83
2018-07-23T08:35:20.367Z,11.50
2018-07-23T08:37:49.436Z,11.37
2018-07-23T08:40:18.526Z,11.00
2018-07-23T08:42:47.600Z,13.33
2018-07-23T08:45:16.684Z,10.87
2018-07-23T08:47:45.756Z,11.37
2018-07-23T08:50:14.852Z,10.77
2018-07-23T08:52:43.941Z,11.10
2018-07-23T08:55:13.088Z,9.60
2018-07-23T08:57:41.903Z,10.93
2018-07-23T09:00:10.611Z,11.17
2018-07-23T09:02:39.556Z,9.37
2018-07-23T09:05:08.640Z,9.23
2018-07-23T09:07:37.712Z,9.47
2018-07-23T09:10:06.804Z,10.03
2018-07-23T09:12:35.884Z,9.17
2018-07-23T09:15:05.168Z,8.87
2018-07-23T09:17:34.290Z,8.67
2018-07-23T09:20:04.021Z,10.87
2018-07-23T09:22:33.502Z,8.60
2018-07-23T09:25:02.699Z,7.80
2018-07-23T09:27:31.764Z,8.70
2018-07-23T09:30:00.583Z,8.80
2018-07-23T09:32:29.521Z,9.10
2018-07-23T09:34:58.615Z,8.00
2018-07-23T09:37:27.688Z,7.87
2018-07-23T09:39:56.764Z,9.13
2018-07-23T09:42:25.821Z,8.13
2018-07-23T09:44:54.892Z,7.40
2018-07-23T09:47:23.951Z,6.77
2018-07-23T09:49:53.023Z,6.63
2018-07-23T09:52:21.900Z,5.63
2018-07-23T09:54:50.851Z,6.30
2018-07-23T09:57:19.908Z,6.27
2018-07-23T09:59:48.996Z,7.70
2018-07-23T10:02:17.796Z,4.30
2018-07-23T10:04:46.740Z,5.77
2018-07-23T10:07:15.808Z,6.77
2018-07-23T10:09:44.880Z,6.20
2018-07-23T10:12:14.052Z,5.70
2018-07-23T10:14:43.104Z,10.30
2018-07-23T10:17:12.185Z,7.73
2018-07-23T10:19:41.235Z,8.03
2018-07-23T10:22:10.332Z,10.00
2018-07-23T10:24:39.383Z,8.50
2018-07-23T10:27:08.612Z,8.00
2018-07-23T10:29:37.672Z,7.50
2018-07-23T10:32:06.747Z,5.40
2018-07-23T10:34:35.799Z,5.73
2018-07-23T10:37:04.880Z,8.00
2018-07-23T10:39:33.940Z,5.70
2018-07-23T10:42:03.032Z,5.40
2018-07-23T10:44:32.111Z,5.27
2018-07-23T10:47:01.207Z,4.93
2018-07-23T10:49:30.915Z,5.47
2018-07-23T10:51:59.991Z,5.27
2018-07-23T10:54:29.055Z,8.50
2018-07-23T10:56:58.138Z,6.00
2018-07-23T10:59:27.212Z,6.73
2018-07-23T11:01:56.049Z,5.77
2018-07-23T11:04:25.624Z,5.53
2018-07-23T11:06:54.699Z,5.93
2018-07-23T11:09:23.538Z,5.17
2018-07-23T11:11:52.484Z,5.90
2018-07-23T11:14:21.396Z,5.73
2018-07-23T11:16:50.120Z,5.50
2018-07-23T11:19:19.070Z,5.47
2018-07-23T11:21:48.353Z,5.17
2018-07-23T11:24:17.452Z,6.23
2018-07-23T11:26:46.580Z,5.73
2018-07-23T11:29:15.648Z,5.70
2018-07-23T11:31:44.734Z,5.30
2018-07-23T11:34:13.816Z,8.43
2018-07-23T11:36:42.881Z,7.42
2018-07-23T11:39:12.499Z,5.27
2018-07-23T11:41:41.626Z,5.47
2018-07-23T11:44:10.660Z,5.43
2018-07-23T11:46:39.740Z,5.30
2018-07-23T11:49:08.832Z,4.90
2018-07-23T11:51:37.634Z,5.37
2018-07-23T11:54:06.740Z,4.80
2018-07-23T11:56:35.852Z,5.50
2018-07-23T11:59:04.920Z,4.47
2018-07-23T12:01:33.731Z,4.92
2018-07-23T12:04:03.528Z,5.12
2018-07-23T12:06:32.596Z,4.80
2018-07-23T12:09:01.717Z,4.45
2018-07-23T12:11:30.856Z,5.75
2018-07-23T12:13:59.968Z,4.33
2018-07-23T12:16:29.091Z,3.95
2018-07-23T12:18:58.100Z,6.40
2018-07-23T12:21:27.040Z,4.65
2018-07-23T12:23:56.135Z,5.08
2018-07-23T12:26:25.220Z,5.22
2018-07-23T12:28:54.307Z,8.53
2018-07-23T12:31:23.374Z,4.50
2018-07-23T12:33:52.231Z,5.20
2018-07-23T12:36:21.180Z,6.55
2018-07-23T12:38:50.275Z,5.40
2018-07-23T12:41:19.339Z,4.22
2018-07-23T12:43:48.603Z,5.72
2018-07-23T12:46:17.671Z,3.80
2018-07-23T12:48:46.731Z,5.00
2018-07-23T12:51:15.808Z,5.70
2018-07-23T12:53:44.875Z,3.95
2018-07-23T12:56:14.049Z,4.95
2018-07-23T12:58:43.115Z,3.75
2018-07-23T13:01:12.395Z,3.72
2018-07-23T13:03:41.468Z,5.28
2018-07-23T13:06:10.545Z,3.72
2018-07-23T13:08:39.613Z,4.17
2018-07-23T13:11:08.563Z,5.10
2018-07-23T13:13:37.520Z,4.03
2018-07-23T13:16:06.600Z,7.72
2018-07-23T13:18:35.566Z,5.37
2018-07-23T13:21:04.520Z,4.25
2018-07-23T13:23:33.623Z,4.03
2018-07-23T13:26:02.704Z,7.45
2018-07-23T13:28:31.785Z,5.28
2018-07-23T13:31:00.608Z,3.65
2018-07-23T13:33:29.548Z,5.80
2018-07-23T13:35:58.662Z,3.80
2018-07-23T13:38:27.728Z,3.85
2018-07-23T13:40:56.814Z,4.33
2018-07-23T13:43:25.880Z,6.47
2018-07-23T13:45:54.971Z,6.40
2018-07-23T13:48:24.060Z,4.62
2018-07-23T13:50:53.187Z,4.00
2018-07-23T13:53:22.255Z,4.10
2018-07-23T13:55:51.343Z,4.17
2018-07-23T13:58:20.150Z,5.35
2018-07-23T14:00:48.860Z,4.37
2018-07-23T14:03:17.796Z,4.50
2018-07-23T14:05:47.075Z,4.58
2018-07-23T14:08:16.011Z,4.10
2018-07-23T14:10:45.126Z,3.90
2018-07-23T14:13:14.208Z,4.00
2018-07-23T14:15:43.276Z,3.60
2018-07-23T14:18:12.103Z,3.80
2018-07-23T14:20:40.791Z,4.10
2018-07-23T14:23:09.751Z,3.87
2018-07-23T14:25:38.673Z,7.33
2018-07-23T14:28:07.644Z,4.30
2018-07-23T14:30:36.705Z,3.60
2018-07-23T14:33:05.971Z,3.67
2018-07-23T14:35:35.036Z,3.42
2018-07-23T14:38:03.862Z,4.28
2018-07-23T14:40:32.969Z,6.05
2018-07-23T14:43:02.043Z,3.65
2018-07-23T14:45:31.107Z,3.60
2018-07-23T14:48:00.196Z,3.92
2018-07-23T14:50:29.252Z,4.42
2018-07-23T14:52:58.347Z,4.40
2018-07-23T14:55:27.631Z,3.95
2018-07-23T14:57:56.712Z,4.15
2018-07-23T15:00:25.789Z,4.97
2018-07-23T15:02:54.675Z,3.80
2018-07-23T15:05:23.621Z,3.58
2018-07-23T15:07:52.823Z,3.65
2018-07-23T15:10:22.107Z,3.30
2018-07-23T15:12:51.211Z,3.70
2018-07-23T15:15:20.284Z,3.65
2018-07-23T15:17:49.389Z,4.17
2018-07-23T15:20:18.456Z,3.42
2018-07-23T15:22:47.278Z,3.30
2018-07-23T15:25:15.963Z,5.33
2018-07-23T15:27:44.818Z,3.30
2018-07-23T15:30:13.758Z,3.22
2018-07-23T15:32:42.931Z,4.15
2018-07-23T15:35:11.744Z,5.05
2018-07-23T15:37:40.781Z,3.42
2018-07-23T15:40:09.873Z,3.67
2018-07-23T15:42:38.990Z,3.72
2018-07-23T15:45:08.143Z,3.20
2018-07-23T15:47:37.204Z,2.87
2018-07-23T15:50:06.283Z,3.30
2018-07-23T15:52:35.599Z,3.67
2018-07-23T15:55:04.791Z,3.20
2018-07-23T15:57:33.598Z,4.62
2018-07-23T16:00:02.299Z,3.17
2018-07-23T16:02:31.014Z,3.52
2018-07-23T16:04:59.971Z,3.50
2018-07-23T16:07:29.030Z,3.60
2018-07-23T16:09:58.104Z,3.40
2018-07-23T16:12:27.195Z,4.87
2018-07-23T16:14:56.279Z,3.50
2018-07-23T16:17:25.423Z,7.45
2018-07-23T16:19:54.507Z,3.52
2018-07-23T16:22:23.583Z,3.87
2018-07-23T16:24:52.667Z,3.37
2018-07-23T16:27:21.731Z,4.83
2018-07-23T16:29:50.811Z,3.52
2018-07-23T16:32:19.618Z,9.03
2018-07-23T16:34:48.571Z,8.28
2018-07-23T16:37:17.635Z,3.50
2018-07-23T16:39:46.715Z,3.87
2018-07-23T16:42:15.773Z,3.83
2018-07-23T16:44:44.847Z,3.62
2018-07-23T16:47:13.916Z,3.47
2018-07-23T16:49:42.991Z,3.42
2018-07-23T16:52:12.057Z,3.42
2018-07-23T16:54:41.145Z,3.62
2018-07-23T16:57:10.248Z,4.00
2018-07-23T16:59:39.331Z,3.40
2018-07-23T17:02:08.403Z,6.08
2018-07-23T17:04:37.519Z,4.05
2018-07-23T17:07:06.615Z,3.33
2018-07-23T17:09:35.687Z,3.67
2018-07-23T17:12:04.767Z,4.55
2018-07-23T17:14:33.859Z,7.08
2018-07-23T17:17:02.932Z,5.08
2018-07-23T17:19:31.740Z,5.20
2018-07-23T17:22:00.434Z,4.75
2018-07-23T17:24:29.118Z,4.05
2018-07-23T17:26:58.087Z,3.85
2018-07-23T17:29:27.147Z,8.35
2018-07-23T17:31:56.334Z,4.95
2018-07-23T17:34:25.468Z,5.90
2018-07-23T17:36:54.563Z,4.97
2018-07-23T17:39:23.619Z,7.17
2018-07-23T17:41:52.704Z,7.70
2018-07-23T17:44:22.023Z,6.90
2018-07-23T17:46:51.108Z,4.53
2018-07-23T17:49:20.166Z,4.42
2018-07-23T17:51:49.252Z,5.15
2018-07-23T17:54:18.347Z,4.12
2018-07-23T17:56:47.427Z,4.75
2018-07-23T17:59:16.492Z,3.80
2018-07-23T18:01:45.571Z,4.20
2018-07-23T18:04:14.651Z,3.87
2018-07-23T18:06:43.719Z,4.15
2018-07-23T18:09:13.578Z,9.58
2018-07-23T18:11:43.021Z,6.67
2018-07-23T18:14:12.132Z,6.87
2018-07-23T18:16:41.353Z,5.92
2018-07-23T18:19:10.207Z,4.72
2018-07-23T18:21:39.150Z,8.13
2018-07-23T18:24:08.204Z,6.22
2018-07-23T18:26:37.275Z,6.65
2018-07-23T18:29:06.331Z,4.75
2018-07-23T18:31:35.419Z,4.08
2018-07-23T18:34:04.468Z,6.28
2018-07-23T18:36:33.523Z,4.15
2018-07-23T18:39:02.587Z,6.20
2018-07-23T18:41:31.644Z,8.23
2018-07-23T18:44:00.715Z,5.85
2018-07-23T18:46:29.767Z,5.67
2018-07-23T18:49:21.567Z,4.50
2018-07-23T18:51:51.600Z,4.00
2018-07-23T18:54:21.876Z,3.72
2018-07-23T18:56:52.980Z,3.70
2018-07-23T18:59:22.035Z,4.05
2018-07-23T19:01:52.073Z,4.37
2018-07-23T19:04:21.160Z,5.42
2018-07-23T19:06:50.451Z,6.87
2018-07-23T19:09:20.692Z,6.53
2018-07-23T19:11:50.803Z,6.97
2018-07-23T19:14:20.084Z,3.70
2018-07-23T19:16:49.802Z,6.23
2018-07-23T19:19:18.881Z,4.67
2018-07-23T19:21:47.671Z,5.83
2018-07-23T19:24:16.632Z,4.50
2018-07-23T19:26:45.707Z,4.20
2018-07-23T19:29:14.790Z,4.63
2018-07-23T19:31:43.836Z,5.30
2018-07-23T19:34:12.904Z,4.53
2018-07-23T19:36:41.964Z,4.60
2018-07-23T19:39:12.510Z,3.87
2018-07-23T19:41:41.604Z,4.30
2018-07-23T19:44:11.118Z,5.00
2018-07-23T19:46:40.399Z,8.00
2018-07-23T19:49:09.474Z,4.93
2018-07-23T19:51:38.510Z,3.97
2018-07-23T19:54:08.218Z,4.10
2018-07-23T19:56:37.266Z,4.67
2018-07-23T19:59:06.415Z,7.27
2018-07-23T20:01:35.468Z,4.97
2018-07-23T20:04:04.278Z,4.33
2018-07-23T20:06:32.948Z,5.27
2018-07-23T20:09:02.441Z,5.40
2018-07-23T20:11:31.512Z,6.13
2018-07-23T20:14:00.596Z,5.00
2018-07-23T20:16:29.647Z,4.57
2018-07-23T20:18:58.724Z,4.40
2018-07-23T20:21:27.767Z,3.80
2018-07-23T20:23:56.873Z,4.10
2018-07-23T20:26:25.951Z,4.07
2018-07-23T20:28:55.012Z,4.77
2018-07-23T20:31:23.826Z,4.60
2018-07-23T20:33:52.506Z,4.17
2018-07-23T20:36:21.512Z,3.57
2018-07-23T20:38:50.612Z,4.00
2018-07-23T20:41:19.666Z,3.63
2018-07-23T20:43:48.720Z,4.47
2018-07-23T20:46:17.788Z,7.07
2018-07-23T20:48:46.842Z,4.30
2018-07-23T20:51:15.928Z,4.50
2018-07-23T20:53:44.976Z,4.77
2018-07-23T20:56:14.036Z,4.80
2018-07-23T20:58:43.086Z,6.00
2018-07-23T21:01:12.145Z,5.43
2018-07-23T21:03:41.191Z,6.53
2018-07-23T21:06:10.255Z,7.70
2018-07-23T21:08:39.302Z,7.23
2018-07-23T21:11:08.368Z,6.40
2018-07-23T21:13:37.430Z,4.63
2018-07-23T21:16:06.259Z,7.63
2018-07-23T21:18:35.191Z,6.97
2018-07-23T21:21:04.254Z,6.63
2018-07-23T21:23:33.311Z,5.87
2018-07-23T21:26:02.384Z,10.73
2018-07-23T21:28:31.430Z,6.30
2018-07-23T21:31:00.503Z,8.17
2018-07-23T21:33:29.551Z,6.13
2018-07-23T21:35:58.653Z,7.47
2018-07-23T21:38:27.700Z,9.63
2018-07-23T21:40:56.766Z,6.30
2018-07-23T21:43:25.563Z,5.53
2018-07-23T21:45:54.507Z,6.83
2018-07-23T21:48:23.555Z,6.10
2018-07-23T21:50:52.390Z,5.93
2018-07-23T21:53:21.312Z,4.93
2018-07-23T21:55:50.379Z,6.77
2018-07-23T21:58:19.438Z,10.70
2018-07-23T22:00:48.525Z,6.73
2018-07-23T22:03:17.572Z,6.73
2018-07-23T22:05:46.623Z,5.70
2018-07-23T22:08:15.697Z,6.03
2018-07-23T22:10:44.748Z,5.97
2018-07-23T22:13:13.835Z,6.80
2018-07-23T22:15:42.884Z,6.17
2018-07-23T22:18:11.947Z,5.63
2018-07-23T22:20:40.991Z,8.83
2018-07-23T22:23:10.055Z,5.43
2018-07-23T22:25:39.107Z,4.83
2018-07-23T22:28:08.183Z,7.40
2018-07-23T22:30:36.980Z,4.77
2018-07-23T22:33:06.172Z,4.77
2018-07-23T22:35:34.995Z,5.23
2018-07-23T22:38:03.935Z,5.73
2018-07-23T22:40:33.272Z,5.17
2018-07-23T22:43:02.345Z,5.30
2018-07-23T22:45:31.395Z,5.13
2018-07-23T22:48:00.462Z,4.47
2018-07-23T22:50:29.503Z,5.50
2018-07-23T22:52:58.574Z,5.03
2018-07-23T22:55:27.643Z,5.80
2018-07-23T22:57:56.723Z,5.30
2018-07-23T23:00:25.547Z,8.90
2018-07-23T23:02:54.495Z,6.37
2018-07-23T23:05:23.544Z,5.70
2018-07-23T23:07:52.614Z,6.47
2018-07-23T23:10:21.659Z,7.37
2018-07-23T23:12:50.748Z,8.17
2018-07-23T23:15:19.799Z,6.90
2018-07-23T23:17:48.867Z,7.93
2018-07-23T23:20:17.915Z,7.33
2018-07-23T23:22:46.978Z,6.20
2018-07-23T23:25:16.028Z,8.43
2018-07-23T23:27:45.111Z,8.03
2018-07-23T23:30:14.171Z,7.30
2018-07-23T23:32:43.238Z,9.57
2018-07-23T23:35:12.339Z,9.93
2018-07-23T23:37:41.384Z,8.60
2018-07-23T23:40:10.464Z,8.07
2018-07-23T23:42:39.507Z,9.67
2018-07-23T23:45:08.583Z,8.93
2018-07-23T23:47:37.635Z,10.53
2018-07-23T23:50:07.278Z,8.63
2018-07-23T23:52:36.369Z,8.60
2018-07-23T23:55:05.476Z,8.47
2018-07-23T23:57:34.522Z,8.83
